sensor_id;sensor_type;location;lat;lon;timestamp;pressure;altitude;pressure_sealevel;temperature;humidity
74613;BME280;63119;51.788;8.824;2022-09-09T00:01:28;99387.56;;;15.66;76.94
74613;BME280;63119;51.788;8.824;2022-09-09T00:04:00;99377.50;;;15.60;77.00
74613;BME280;63119;51.788;8.824;2022-09-09T00:06:33;99373.44;;;15.65;76.92
74613;BME280;63119;51.788;8.824;2022-09-09T00:09:05;99369.63;;;15.68;77.10
74613;BME280;63119;51.788;8.824;2022-09-09T00:22:54;99374.34;;;15.56;77.88
74613;BME280;63119;51.788;8.824;2022-09-09T00:25:33;99369.81;;;15.57;77.64
74613;BME280;63119;51.788;8.824;2022-09-09T00:28:02;99370.81;;;15.56;78.19
74613;BME280;63119;51.788;8.824;2022-09-09T00:30:31;99364.03;;;15.61;77.69
74613;BME280;63119;51.788;8.824;2022-09-09T00:33:10;99360.69;;;15.59;78.34
74613;BME280;63119;51.788;8.824;2022-09-09T00:35:38;99364.19;;;15.60;78.45
74613;BME280;63119;51.788;8.824;2022-09-09T00:38:19;99362.75;;;15.65;78.53
74613;BME280;63119;51.788;8.824;2022-09-09T00:40:49;99360.91;;;15.66;78.21
74613;BME280;63119;51.788;8.824;2022-09-09T00:43:21;99354.28;;;15.70;78.35
74613;BME280;63119;51.788;8.824;2022-09-09T00:48:58;99358.88;;;15.77;78.79
74613;BME280;63119;51.788;8.824;2022-09-09T00:51:39;99360.09;;;15.83;78.44
74613;BME280;63119;51.788;8.824;2022-09-09T00:54:52;99371.97;;;15.89;78.35
74613;BME280;63119;51.788;8.824;2022-09-09T01:11:22;99372.69;;;16.34;79.95
74613;BME280;63119;51.788;8.824;2022-09-09T01:13:55;99376.00;;;16.28;80.91
74613;BME280;63119;51.788;8.824;2022-09-09T01:16:24;99382.84;;;16.30;81.12
74613;BME280;63119;51.788;8.824;2022-09-09T01:18:52;99367.75;;;16.21;81.80
74613;BME280;63119;51.788;8.824;2022-09-09T01:21:47;99361.75;;;16.19;82.93
74613;BME280;63119;51.788;8.824;2022-09-09T01:24:22;99374.88;;;16.13;83.53
74613;BME280;63119;51.788;8.824;2022-09-09T01:26:52;99374.88;;;16.13;82.45
74613;BME280;63119;51.788;8.824;2022-09-09T01:29:21;99374.63;;;16.06;83.04
74613;BME280;63119;51.788;8.824;2022-09-09T01:32:01;99380.59;;;16.00;83.75
74613;BME280;63119;51.788;8.824;2022-09-09T01:34:31;99375.78;;;15.86;84.05
74613;BME280;63119;51.788;8.824;2022-09-09T01:37:08;99377.59;;;16.03;83.79
74613;BME280;63119;51.788;8.824;2022-09-09T01:39:36;99381.44;;;16.01;83.79
74613;BME280;63119;51.788;8.824;2022-09-09T01:42:05;99372.53;;;15.92;84.52
74613;BME280;63119;51.788;8.824;2022-09-09T01:44:31;99379.00;;;15.90;85.19
74613;BME280;63119;51.788;8.824;2022-09-09T01:46:57;99371.69;;;15.92;84.71
74613;BME280;63119;51.788;8.824;2022-09-09T01:49:22;99370.81;;;15.91;84.50
74613;BME280;63119;51.788;8.824;2022-09-09T01:51:51;99367.78;;;16.04;83.68
74613;BME280;63119;51.788;8.824;2022-09-09T01:54:19;99378.41;;;15.96;84.35
74613;BME280;63119;51.788;8.824;2022-09-09T01:56:57;99375.31;;;15.91;84.52
74613;BME280;63119;51.788;8.824;2022-09-09T02:04:49;99370.59;;;15.84;84.44
74613;BME280;63119;51.788;8.824;2022-09-09T02:09:50;99363.06;;;15.80;83.87
74613;BME280;63119;51.788;8.824;2022-09-09T02:12:18;99367.31;;;15.73;83.93
74613;BME280;63119;51.788;8.824;2022-09-09T02:14:55;99364.34;;;15.76;83.87
74613;BME280;63119;51.788;8.824;2022-09-09T02:17:29;99361.25;;;15.80;83.59
74613;BME280;63119;51.788;8.824;2022-09-09T02:20:14;99362.00;;;15.73;84.53
74613;BME280;63119;51.788;8.824;2022-09-09T02:22:43;99364.72;;;15.81;84.10
74613;BME280;63119;51.788;8.824;2022-09-09T02:25:12;99372.81;;;15.71;84.68
74613;BME280;63119;51.788;8.824;2022-09-09T02:27:41;99370.06;;;15.63;84.37
74613;BME280;63119;51.788;8.824;2022-09-09T02:30:09;99376.16;;;15.56;85.29
74613;BME280;63119;51.788;8.824;2022-09-09T02:32:35;99375.59;;;15.52;85.45
74613;BME280;63119;51.788;8.824;2022-09-09T02:35:09;99370.72;;;15.48;85.18
74613;BME280;63119;51.788;8.824;2022-09-09T02:37:37;99369.31;;;15.53;85.34
74613;BME280;63119;51.788;8.824;2022-09-09T02:40:05;99369.06;;;15.64;84.63
74613;BME280;63119;51.788;8.824;2022-09-09T02:42:31;99354.75;;;15.65;84.18
74613;BME280;63119;51.788;8.824;2022-09-09T02:44:56;99368.78;;;15.67;84.06
74613;BME280;63119;51.788;8.824;2022-09-09T02:47:36;99371.69;;;15.74;84.82
74613;BME280;63119;51.788;8.824;2022-09-09T02:52:45;99372.34;;;15.76;84.09
74613;BME280;63119;51.788;8.824;2022-09-09T02:58:16;99375.78;;;15.86;84.08
74613;BME280;63119;51.788;8.824;2022-09-09T03:00:44;99373.97;;;15.87;84.40
74613;BME280;63119;51.788;8.824;2022-09-09T03:03:10;99371.75;;;15.82;84.43
74613;BME280;63119;51.788;8.824;2022-09-09T03:05:36;99370.75;;;15.83;84.87
74613;BME280;63119;51.788;8.824;2022-09-09T03:08:03;99378.06;;;15.81;85.22
74613;BME280;63119;51.788;8.824;2022-09-09T03:10:29;99374.41;;;15.82;84.46
74613;BME280;63119;51.788;8.824;2022-09-09T03:12:54;99374.41;;;15.82;84.87
74613;BME280;63119;51.788;8.824;2022-09-09T03:15:20;99382.13;;;15.85;84.76
74613;BME280;63119;51.788;8.824;2022-09-09T03:17:46;99380.81;;;15.89;83.74
74613;BME280;63119;51.788;8.824;2022-09-09T03:20:12;99377.31;;;15.89;83.79
74613;BME280;63119;51.788;8.824;2022-09-09T03:22:37;99380.53;;;15.92;83.85
74613;BME280;63119;51.788;8.824;2022-09-09T03:25:03;99379.19;;;15.96;82.62
74613;BME280;63119;51.788;8.824;2022-09-09T03:27:29;99372.22;;;15.95;83.44
74613;BME280;63119;51.788;8.824;2022-09-09T03:29:55;99379.38;;;15.95;84.27
74613;BME280;63119;51.788;8.824;2022-09-09T03:32:21;99377.25;;;15.98;84.83
74613;BME280;63119;51.788;8.824;2022-09-09T03:34:48;99374.03;;;15.95;85.21
74613;BME280;63119;51.788;8.824;2022-09-09T03:37:15;99371.81;;;15.90;85.61
74613;BME280;63119;51.788;8.824;2022-09-09T03:39:41;99377.69;;;15.94;85.17
74613;BME280;63119;51.788;8.824;2022-09-09T03:42:06;99372.13;;;15.87;85.07
74613;BME280;63119;51.788;8.824;2022-09-09T03:44:31;99371.00;;;15.90;85.03
74613;BME280;63119;51.788;8.824;2022-09-09T03:46:57;99365.13;;;15.86;85.43
74613;BME280;63119;51.788;8.824;2022-09-09T03:49:25;99363.91;;;15.80;85.59
74613;BME280;63119;51.788;8.824;2022-09-09T03:51:51;99368.72;;;15.77;85.79
74613;BME280;63119;51.788;8.824;2022-09-09T03:54:16;99369.16;;;15.72;85.32
74613;BME280;63119;51.788;8.824;2022-09-09T03:56:41;99363.50;;;15.58;86.29
74613;BME280;63119;51.788;8.824;2022-09-09T03:59:07;99362.00;;;15.73;85.18
74613;BME280;63119;51.788;8.824;2022-09-09T04:01:34;99359.19;;;15.74;84.91
74613;BME280;63119;51.788;8.824;2022-09-09T04:03:59;99358.41;;;15.64;85.50
74613;BME280;63119;51.788;8.824;2022-09-09T04:06:25;99353.00;;;15.74;85.25
74613;BME280;63119;51.788;8.824;2022-09-09T04:08:51;99351.06;;;15.66;85.56
74613;BME280;63119;51.788;8.824;2022-09-09T04:11:17;99349.03;;;15.60;85.60
74613;BME280;63119;51.788;8.824;2022-09-09T04:13:43;99359.56;;;15.62;86.04
74613;BME280;63119;51.788;8.824;2022-09-09T04:16:10;99364.88;;;15.62;85.90
74613;BME280;63119;51.788;8.824;2022-09-09T04:18:36;99367.38;;;15.63;85.33
74613;BME280;63119;51.788;8.824;2022-09-09T04:21:01;99360.91;;;15.66;85.45
74613;BME280;63119;51.788;8.824;2022-09-09T04:23:28;99361.22;;;15.63;85.64
74613;BME280;63119;51.788;8.824;2022-09-09T04:25:57;99367.78;;;15.68;85.58
74613;BME280;63119;51.788;8.824;2022-09-09T04:28:25;99374.41;;;15.64;86.31
74613;BME280;63119;51.788;8.824;2022-09-09T04:30:50;99371.88;;;15.63;86.48
74613;BME280;63119;51.788;8.824;2022-09-09T04:33:17;99381.25;;;15.67;85.97
74613;BME280;63119;51.788;8.824;2022-09-09T04:35:48;99388.34;;;15.76;85.76
74613;BME280;63119;51.788;8.824;2022-09-09T04:38:14;99390.03;;;15.77;85.14
74613;BME280;63119;51.788;8.824;2022-09-09T04:40:42;99392.16;;;15.73;84.33
74613;BME280;63119;51.788;8.824;2022-09-09T04:43:09;99387.50;;;15.75;84.43
74613;BME280;63119;51.788;8.824;2022-09-09T04:45:34;99393.38;;;15.79;84.59
74613;BME280;63119;51.788;8.824;2022-09-09T04:48:00;99396.38;;;15.76;84.94
74613;BME280;63119;51.788;8.824;2022-09-09T04:50:25;99395.69;;;15.74;83.96
74613;BME280;63119;51.788;8.824;2022-09-09T04:52:51;99399.88;;;15.76;82.40
74613;BME280;63119;51.788;8.824;2022-09-09T04:55:16;99395.75;;;15.64;81.57
74613;BME280;63119;51.788;8.824;2022-09-09T04:57:41;99388.97;;;15.70;81.64
74613;BME280;63119;51.788;8.824;2022-09-09T05:00:07;99392.59;;;15.69;81.75
74613;BME280;63119;51.788;8.824;2022-09-09T05:02:32;99388.97;;;15.70;81.58
74613;BME280;63119;51.788;8.824;2022-09-09T05:04:58;99396.38;;;15.76;80.71
74613;BME280;63119;51.788;8.824;2022-09-09T05:07:24;99390.78;;;15.69;81.06
74613;BME280;63119;51.788;8.824;2022-09-09T05:09:51;99380.28;;;15.68;80.88
74613;BME280;63119;51.788;8.824;2022-09-09T05:12:18;99385.84;;;15.74;80.91
74613;BME280;63119;51.788;8.824;2022-09-09T05:14:43;99393.38;;;15.79;81.28
74613;BME280;63119;51.788;8.824;2022-09-09T05:17:09;99396.44;;;15.84;80.67
74613;BME280;63119;51.788;8.824;2022-09-09T05:19:35;99394.53;;;15.94;80.35
74613;BME280;63119;51.788;8.824;2022-09-09T05:22:00;99395.53;;;15.93;81.25
74613;BME280;63119;51.788;8.824;2022-09-09T05:24:26;99393.03;;;15.92;81.27
74613;BME280;63119;51.788;8.824;2022-09-09T05:26:51;99404.44;;;15.84;82.05
74613;BME280;63119;51.788;8.824;2022-09-09T05:29:17;99399.03;;;15.76;82.80
74613;BME280;63119;51.788;8.824;2022-09-09T05:31:44;99393.94;;;15.82;83.45
74613;BME280;63119;51.788;8.824;2022-09-09T05:34:10;99403.81;;;15.72;83.81
74613;BME280;63119;51.788;8.824;2022-09-09T05:36:35;99400.03;;;15.93;83.09
74613;BME280;63119;51.788;8.824;2022-09-09T05:39:00;99401.16;;;15.90;83.27
74613;BME280;63119;51.788;8.824;2022-09-09T05:41:26;99402.91;;;15.81;82.82
74613;BME280;63119;51.788;8.824;2022-09-09T05:43:52;99395.53;;;16.11;81.89
74613;BME280;63119;51.788;8.824;2022-09-09T05:46:20;99398.81;;;16.66;80.27
74613;BME280;63119;51.788;8.824;2022-09-09T05:48:46;99400.34;;;16.94;78.52
74613;BME280;63119;51.788;8.824;2022-09-09T05:51:15;99399.22;;;17.38;77.69
74613;BME280;63119;51.788;8.824;2022-09-09T05:53:41;99402.09;;;18.19;74.35
74613;BME280;63119;51.788;8.824;2022-09-09T05:56:18;99397.75;;;18.67;73.03
74613;BME280;63119;51.788;8.824;2022-09-09T05:58:44;99404.94;;;19.45;68.86
74613;BME280;63119;51.788;8.824;2022-09-09T06:01:25;99405.63;;;19.31;68.28
74613;BME280;63119;51.788;8.824;2022-09-09T06:03:54;99397.91;;;19.75;66.99
74613;BME280;63119;51.788;8.824;2022-09-09T06:06:21;99402.34;;;20.73;64.06
74613;BME280;63119;51.788;8.824;2022-09-09T06:08:49;99397.19;;;20.49;62.43
74613;BME280;63119;51.788;8.824;2022-09-09T06:11:18;99394.34;;;20.88;61.19
74613;BME280;63119;51.788;8.824;2022-09-09T06:13:44;99395.28;;;20.58;60.24
74613;BME280;63119;51.788;8.824;2022-09-09T06:16:11;99401.69;;;20.57;61.20
74613;BME280;63119;51.788;8.824;2022-09-09T06:18:37;99401.06;;;19.48;64.29
74613;BME280;63119;51.788;8.824;2022-09-09T06:21:05;99407.28;;;19.48;65.88
74613;BME280;63119;51.788;8.824;2022-09-09T06:23:32;99404.75;;;18.92;67.43
74613;BME280;63119;51.788;8.824;2022-09-09T06:26:18;99405.97;;;18.65;67.71
74613;BME280;63119;51.788;8.824;2022-09-09T06:28:45;99401.75;;;18.22;69.12
74613;BME280;63119;51.788;8.824;2022-09-09T06:31:12;99402.72;;;17.97;69.68
74613;BME280;63119;51.788;8.824;2022-09-09T06:33:40;99400.38;;;17.86;70.99
74613;BME280;63119;51.788;8.824;2022-09-09T06:36:19;99397.34;;;17.73;72.23
74613;BME280;63119;51.788;8.824;2022-09-09T06:38:45;99401.53;;;17.75;72.16
74613;BME280;63119;51.788;8.824;2022-09-09T06:41:12;99408.09;;;17.81;72.74
74613;BME280;63119;51.788;8.824;2022-09-09T06:43:38;99405.00;;;17.60;73.91
74613;BME280;63119;51.788;8.824;2022-09-09T06:46:15;99408.19;;;17.63;74.23
74613;BME280;63119;51.788;8.824;2022-09-09T06:48:41;99402.34;;;17.68;71.13
74613;BME280;63119;51.788;8.824;2022-09-09T06:51:08;99412.72;;;17.63;73.72
74613;BME280;63119;51.788;8.824;2022-09-09T06:53:35;99421.75;;;17.70;73.23
74613;BME280;63119;51.788;8.824;2022-09-09T06:56:31;99418.53;;;17.58;72.59
74613;BME280;63119;51.788;8.824;2022-09-09T06:58:59;99422.72;;;17.61;72.96
74613;BME280;63119;51.788;8.824;2022-09-09T07:01:28;99423.88;;;17.58;72.40
74613;BME280;63119;51.788;8.824;2022-09-09T07:03:56;99422.38;;;17.56;73.37
74613;BME280;63119;51.788;8.824;2022-09-09T07:06:33;99423.47;;;17.45;72.86
74613;BME280;63119;51.788;8.824;2022-09-09T07:09:01;99422.16;;;17.49;74.01
74613;BME280;63119;51.788;8.824;2022-09-09T07:11:31;99419.97;;;17.44;73.21
74613;BME280;63119;51.788;8.824;2022-09-09T07:13:58;99424.59;;;17.34;73.69
74613;BME280;63119;51.788;8.824;2022-09-09T07:16:24;99419.59;;;17.39;74.17
74613;BME280;63119;51.788;8.824;2022-09-09T07:18:50;99426.19;;;17.53;73.18
74613;BME280;63119;51.788;8.824;2022-09-09T07:21:16;99423.84;;;17.50;73.59
74613;BME280;63119;51.788;8.824;2022-09-09T07:23:42;99425.47;;;17.43;74.62
74613;BME280;63119;51.788;8.824;2022-09-09T07:26:13;99426.13;;;17.45;74.17
74613;BME280;63119;51.788;8.824;2022-09-09T07:28:39;99432.72;;;17.51;73.35
74613;BME280;63119;51.788;8.824;2022-09-09T07:31:06;99425.06;;;17.56;73.68
74613;BME280;63119;51.788;8.824;2022-09-09T07:33:35;99425.78;;;17.66;72.78
74613;BME280;63119;51.788;8.824;2022-09-09T07:38:40;99420.75;;;17.71;72.87
74613;BME280;63119;51.788;8.824;2022-09-09T07:41:08;99421.41;;;17.73;71.87
74613;BME280;63119;51.788;8.824;2022-09-09T07:43:38;99421.63;;;17.79;72.56
74613;BME280;63119;51.788;8.824;2022-09-09T07:46:03;99417.09;;;17.80;71.79
74613;BME280;63119;51.788;8.824;2022-09-09T07:48:29;99417.44;;;17.85;72.75
74613;BME280;63119;51.788;8.824;2022-09-09T07:51:03;99422.81;;;17.93;72.33
74613;BME280;63119;51.788;8.824;2022-09-09T07:53:29;99416.13;;;17.97;72.63
74613;BME280;63119;51.788;8.824;2022-09-09T07:56:11;99422.81;;;17.93;72.09
74613;BME280;63119;51.788;8.824;2022-09-09T07:58:37;99417.28;;;18.02;71.91
74613;BME280;63119;51.788;8.824;2022-09-09T08:01:14;99428.22;;;18.17;71.13
74613;BME280;63119;51.788;8.824;2022-09-09T08:03:40;99423.19;;;18.14;71.58
74613;BME280;63119;51.788;8.824;2022-09-09T08:06:08;99422.50;;;18.36;71.08
74613;BME280;63119;51.788;8.824;2022-09-09T08:08:35;99422.53;;;18.77;69.66
74613;BME280;63119;51.788;8.824;2022-09-09T08:11:10;99420.81;;;19.08;69.21
74613;BME280;63119;51.788;8.824;2022-09-09T08:13:37;99424.38;;;18.76;68.13
74613;BME280;63119;51.788;8.824;2022-09-09T08:16:16;99416.50;;;18.67;68.75
74613;BME280;63119;51.788;8.824;2022-09-09T08:18:42;99433.75;;;18.64;70.02
74613;BME280;63119;51.788;8.824;2022-09-09T08:21:11;99431.44;;;18.53;70.38
74613;BME280;63119;51.788;8.824;2022-09-09T08:23:38;99433.06;;;18.46;69.76
74613;BME280;63119;51.788;8.824;2022-09-09T08:26:06;99432.91;;;18.39;70.57
74613;BME280;63119;51.788;8.824;2022-09-09T08:28:32;99445.31;;;18.32;69.64
74613;BME280;63119;51.788;8.824;2022-09-09T08:31:15;99449.19;;;18.54;69.80
74613;BME280;63119;51.788;8.824;2022-09-09T08:33:42;99447.66;;;18.76;68.38
74613;BME280;63119;51.788;8.824;2022-09-09T08:36:13;99451.75;;;19.27;70.14
74613;BME280;63119;51.788;8.824;2022-09-09T08:38:40;99448.34;;;19.57;65.88
74613;BME280;63119;51.788;8.824;2022-09-09T08:44:49;99439.72;;;20.46;62.42
74613;BME280;63119;51.788;8.824;2022-09-09T08:47:34;99443.84;;;20.56;61.32
74613;BME280;63119;51.788;8.824;2022-09-09T08:50:16;99437.16;;;20.90;59.10
74613;BME280;63119;51.788;8.824;2022-09-09T08:52:50;99446.41;;;21.39;59.97
74613;BME280;63119;51.788;8.824;2022-09-09T08:57:56;99441.81;;;21.84;56.63
74613;BME280;63119;51.788;8.824;2022-09-09T09:00:32;99438.63;;;21.95;56.49
74613;BME280;63119;51.788;8.824;2022-09-09T09:03:27;99444.56;;;22.05;55.49
74613;BME280;63119;51.788;8.824;2022-09-09T09:06:09;99441.84;;;21.69;56.26
74613;BME280;63119;51.788;8.824;2022-09-09T09:08:51;99446.97;;;21.35;56.63
74613;BME280;63119;51.788;8.824;2022-09-09T09:11:21;99449.84;;;21.33;57.36
74613;BME280;63119;51.788;8.824;2022-09-09T09:14:02;99454.31;;;21.26;57.42
74613;BME280;63119;51.788;8.824;2022-09-09T09:16:34;99451.84;;;21.02;57.35
74613;BME280;63119;51.788;8.824;2022-09-09T09:19:03;99448.13;;;20.88;58.84
74613;BME280;63119;51.788;8.824;2022-09-09T09:21:41;99446.31;;;21.47;56.41
74613;BME280;63119;51.788;8.824;2022-09-09T09:24:20;99439.63;;;21.43;56.55
74613;BME280;63119;51.788;8.824;2022-09-09T09:26:47;99438.44;;;21.46;55.66
74613;BME280;63119;51.788;8.824;2022-09-09T09:29:15;99434.63;;;21.40;55.76
74613;BME280;63119;51.788;8.824;2022-09-09T09:31:55;99437.41;;;21.17;56.81
74613;BME280;63119;51.788;8.824;2022-09-09T09:34:22;99434.69;;;21.03;56.02
74613;BME280;63119;51.788;8.824;2022-09-09T09:36:56;99422.59;;;20.84;56.63
74613;BME280;63119;51.788;8.824;2022-09-09T09:39:27;99427.69;;;20.42;57.74
74613;BME280;63119;51.788;8.824;2022-09-09T09:41:53;99422.97;;;20.44;58.48
74613;BME280;63119;51.788;8.824;2022-09-09T09:44:30;99425.66;;;20.44;58.91
74613;BME280;63119;51.788;8.824;2022-09-09T09:47:16;99425.78;;;20.50;59.33
74613;BME280;63119;51.788;8.824;2022-09-09T09:49:52;99421.44;;;20.64;59.28
74613;BME280;63119;51.788;8.824;2022-09-09T09:52:22;99416.84;;;20.73;59.82
74613;BME280;63119;51.788;8.824;2022-09-09T09:54:49;99430.09;;;20.89;58.05
74613;BME280;63119;51.788;8.824;2022-09-09T09:57:16;99434.81;;;21.24;55.54
74613;BME280;63119;51.788;8.824;2022-09-09T09:59:42;99431.09;;;21.54;53.40
74613;BME280;63119;51.788;8.824;2022-09-09T10:04:38;99442.25;;;22.02;51.97
74613;BME280;63119;51.788;8.824;2022-09-09T10:07:18;99436.19;;;22.14;52.10
74613;BME280;63119;51.788;8.824;2022-09-09T10:09:44;99436.78;;;21.95;51.66
74613;BME280;63119;51.788;8.824;2022-09-09T10:12:45;99440.50;;;21.79;51.51
74613;BME280;63119;51.788;8.824;2022-09-09T10:20:39;99431.78;;;21.77;50.92
74613;BME280;63119;51.788;8.824;2022-09-09T10:23:21;99423.97;;;21.83;51.52
74613;BME280;63119;51.788;8.824;2022-09-09T10:28:37;99417.94;;;21.80;51.13
74613;BME280;63119;51.788;8.824;2022-09-09T10:31:18;99432.16;;;21.89;51.37
74613;BME280;63119;51.788;8.824;2022-09-09T10:36:28;99416.69;;;21.62;47.48
74613;BME280;63119;51.788;8.824;2022-09-09T10:38:58;99415.69;;;21.48;48.48
74613;BME280;63119;51.788;8.824;2022-09-09T10:52:33;99404.06;;;21.62;48.63
74613;BME280;63119;51.788;8.824;2022-09-09T10:55:16;99405.59;;;22.01;48.21
74613;BME280;63119;51.788;8.824;2022-09-09T10:57:45;99400.91;;;22.30;48.71
74613;BME280;63119;51.788;8.824;2022-09-09T11:00:19;99397.03;;;22.40;47.34
74613;BME280;63119;51.788;8.824;2022-09-09T11:02:48;99399.66;;;22.33;47.17
74613;BME280;63119;51.788;8.824;2022-09-09T11:05:20;99398.19;;;22.30;46.89
74613;BME280;63119;51.788;8.824;2022-09-09T11:08:05;99403.34;;;22.74;46.81
74613;BME280;63119;51.788;8.824;2022-09-09T11:13:14;99392.56;;;22.74;46.21
74613;BME280;63119;51.788;8.824;2022-09-09T11:15:53;99395.69;;;23.06;47.09
74613;BME280;63119;51.788;8.824;2022-09-09T11:18:22;99400.13;;;23.20;45.33
74613;BME280;63119;51.788;8.824;2022-09-09T11:20:53;99413.13;;;23.03;45.89
74613;BME280;63119;51.788;8.824;2022-09-09T11:23:24;99396.88;;;22.97;47.23
74613;BME280;63119;51.788;8.824;2022-09-09T11:25:55;99403.41;;;22.81;46.36
74613;BME280;63119;51.788;8.824;2022-09-09T11:31:01;99394.81;;;22.99;47.12
74613;BME280;63119;51.788;8.824;2022-09-09T11:33:53;99398.06;;;22.88;46.54
74613;BME280;63119;51.788;8.824;2022-09-09T11:36:34;99397.66;;;23.18;46.14
74613;BME280;63119;51.788;8.824;2022-09-09T11:42:25;99401.03;;;23.74;43.21
74613;BME280;63119;51.788;8.824;2022-09-09T11:44:51;99390.06;;;23.82;43.49
74613;BME280;63119;51.788;8.824;2022-09-09T11:47:27;99388.66;;;24.00;41.99
74613;BME280;63119;51.788;8.824;2022-09-09T11:52:42;99391.03;;;23.62;41.88
74613;BME280;63119;51.788;8.824;2022-09-09T11:55:24;99387.13;;;23.30;42.69
74613;BME280;63119;51.788;8.824;2022-09-09T11:58:01;99383.50;;;23.51;43.31
74613;BME280;63119;51.788;8.824;2022-09-09T12:00:41;99389.81;;;23.64;43.07
74613;BME280;63119;51.788;8.824;2022-09-09T12:03:33;99388.88;;;23.44;42.16
74613;BME280;63119;51.788;8.824;2022-09-09T12:06:27;99384.41;;;23.64;42.02
74613;BME280;63119;51.788;8.824;2022-09-09T12:09:04;99399.81;;;23.83;41.78
74613;BME280;63119;51.788;8.824;2022-09-09T12:11:31;99392.38;;;23.85;42.40
74613;BME280;63119;51.788;8.824;2022-09-09T12:13:58;99387.81;;;23.99;40.13
74613;BME280;63119;51.788;8.824;2022-09-09T12:16:30;99395.31;;;24.04;40.43
74613;BME280;63119;51.788;8.824;2022-09-09T12:19:16;99387.78;;;23.92;40.64
74613;BME280;63119;51.788;8.824;2022-09-09T12:24:54;99405.28;;;23.97;41.95
74613;BME280;63119;51.788;8.824;2022-09-09T12:27:27;99410.47;;;23.91;41.81
74613;BME280;63119;51.788;8.824;2022-09-09T12:30:03;99403.63;;;24.02;41.45
74613;BME280;63119;51.788;8.824;2022-09-09T12:32:29;99401.13;;;24.01;41.74
74613;BME280;63119;51.788;8.824;2022-09-09T12:34:59;99411.53;;;24.04;41.58
74613;BME280;63119;51.788;8.824;2022-09-09T12:37:35;99414.50;;;24.15;42.38
74613;BME280;63119;51.788;8.824;2022-09-09T12:40:06;99413.84;;;24.07;41.99
74613;BME280;63119;51.788;8.824;2022-09-09T12:42:40;99411.38;;;24.12;42.09
74613;BME280;63119;51.788;8.824;2022-09-09T12:45:25;99404.03;;;23.99;41.17
74613;BME280;63119;51.788;8.824;2022-09-09T12:50:27;99396.56;;;24.01;39.85
74613;BME280;63119;51.788;8.824;2022-09-09T12:52:56;99390.34;;;24.07;41.16
74613;BME280;63119;51.788;8.824;2022-09-09T12:55:35;99386.34;;;23.90;41.32
74613;BME280;63119;51.788;8.824;2022-09-09T12:58:02;99381.06;;;23.69;42.16
74613;BME280;63119;51.788;8.824;2022-09-09T13:00:30;99376.50;;;23.22;42.41
74613;BME280;63119;51.788;8.824;2022-09-09T13:02:58;99382.38;;;23.04;43.62
74613;BME280;63119;51.788;8.824;2022-09-09T13:05:26;99371.13;;;22.94;43.68
74613;BME280;63119;51.788;8.824;2022-09-09T13:08:03;99368.03;;;23.38;42.35
74613;BME280;63119;51.788;8.824;2022-09-09T13:10:31;99370.91;;;23.30;42.97
74613;BME280;63119;51.788;8.824;2022-09-09T13:12:58;99366.78;;;23.34;42.45
74613;BME280;63119;51.788;8.824;2022-09-09T13:15:27;99364.03;;;23.21;42.08
74613;BME280;63119;51.788;8.824;2022-09-09T13:18:03;99373.41;;;23.25;41.82
74613;BME280;63119;51.788;8.824;2022-09-09T13:20:31;99362.13;;;23.15;42.76
74613;BME280;63119;51.788;8.824;2022-09-09T13:22:56;99363.59;;;23.17;42.73
74613;BME280;63119;51.788;8.824;2022-09-09T13:25:29;99365.22;;;23.12;42.59
74613;BME280;63119;51.788;8.824;2022-09-09T13:28:05;99359.91;;;23.25;42.38
74613;BME280;63119;51.788;8.824;2022-09-09T13:30:32;99366.56;;;23.35;41.78
74613;BME280;63119;51.788;8.824;2022-09-09T13:35:51;99346.19;;;23.67;39.75
74613;BME280;63119;51.788;8.824;2022-09-09T13:38:18;99350.94;;;23.59;40.10
74613;BME280;63119;51.788;8.824;2022-09-09T13:43:24;99349.31;;;23.30;40.65
74613;BME280;63119;51.788;8.824;2022-09-09T13:46:00;99345.56;;;23.24;41.25
74613;BME280;63119;51.788;8.824;2022-09-09T13:48:26;99341.53;;;23.14;42.30
74613;BME280;63119;51.788;8.824;2022-09-09T13:51:03;99338.00;;;23.07;42.00
74613;BME280;63119;51.788;8.824;2022-09-09T13:53:31;99344.22;;;23.07;42.12
74613;BME280;63119;51.788;8.824;2022-09-09T13:55:57;99335.44;;;22.99;42.25
74613;BME280;63119;51.788;8.824;2022-09-09T13:58:23;99330.94;;;23.06;42.98
74613;BME280;63119;51.788;8.824;2022-09-09T14:00:51;99344.19;;;23.01;43.11
74613;BME280;63119;51.788;8.824;2022-09-09T14:03:16;99339.72;;;22.86;42.70
74613;BME280;63119;51.788;8.824;2022-09-09T14:05:43;99333.41;;;23.01;42.32
74613;BME280;63119;51.788;8.824;2022-09-09T14:08:17;99328.09;;;23.20;41.52
74613;BME280;63119;51.788;8.824;2022-09-09T14:10:45;99329.06;;;23.41;41.45
74613;BME280;63119;51.788;8.824;2022-09-09T14:13:10;99319.13;;;23.54;40.70
74613;BME280;63119;51.788;8.824;2022-09-09T14:15:37;99322.84;;;23.53;40.49
74613;BME280;63119;51.788;8.824;2022-09-09T14:18:02;99333.25;;;23.56;38.57
74613;BME280;63119;51.788;8.824;2022-09-09T14:20:27;99327.84;;;23.56;37.89
74613;BME280;63119;51.788;8.824;2022-09-09T14:22:53;99335.38;;;23.67;38.97
74613;BME280;63119;51.788;8.824;2022-09-09T14:25:18;99332.00;;;23.52;39.22
74613;BME280;63119;51.788;8.824;2022-09-09T14:27:43;99332.69;;;23.26;40.08
74613;BME280;63119;51.788;8.824;2022-09-09T14:30:11;99337.72;;;23.36;40.48
74613;BME280;63119;51.788;8.824;2022-09-09T14:32:36;99342.91;;;23.31;39.79
74613;BME280;63119;51.788;8.824;2022-09-09T14:35:01;99333.69;;;23.19;40.15
74613;BME280;63119;51.788;8.824;2022-09-09T14:37:27;99339.66;;;23.08;40.64
74613;BME280;63119;51.788;8.824;2022-09-09T14:39:52;99339.22;;;23.04;41.07
74613;BME280;63119;51.788;8.824;2022-09-09T14:42:18;99339.38;;;22.96;41.08
74613;BME280;63119;51.788;8.824;2022-09-09T14:44:44;99335.69;;;22.69;41.43
74613;BME280;63119;51.788;8.824;2022-09-09T14:47:09;99333.44;;;22.73;41.57
74613;BME280;63119;51.788;8.824;2022-09-09T14:49:35;99333.66;;;22.78;42.14
74613;BME280;63119;51.788;8.824;2022-09-09T14:52:01;99340.69;;;22.72;41.77
74613;BME280;63119;51.788;8.824;2022-09-09T14:54:27;99328.59;;;22.96;41.75